createdAt,value
2023-02-05T00:00:11.208Z,-1.30
2023-02-05T00:02:39.206Z,-1.30
2023-02-05T00:05:07.614Z,-1.30
2023-02-05T00:07:35.781Z,-1.30
2023-02-05T00:10:03.974Z,-1.20
2023-02-05T00:12:33.494Z,-1.20
2023-02-05T00:15:01.550Z,-1.20
2023-02-05T00:17:29.798Z,-1.20
2023-02-05T00:19:57.897Z,-1.20
2023-02-05T00:22:26.057Z,-1.20
2023-02-05T00:24:54.212Z,-1.20
2023-02-05T00:27:22.358Z,-1.20
2023-02-05T00:29:51.920Z,-1.20
2023-02-05T00:32:20.006Z,-1.20
2023-02-05T00:34:48.177Z,-1.20
2023-02-05T00:37:16.664Z,-1.20
2023-02-05T00:39:44.714Z,-1.20
2023-02-05T00:42:12.879Z,-1.20
2023-02-05T00:44:41.080Z,-1.20
2023-02-05T00:47:10.539Z,-1.20
2023-02-05T00:49:39.444Z,-1.20
2023-02-05T00:52:07.724Z,-1.20
2023-02-05T00:54:35.823Z,-1.30
2023-02-05T00:57:04.016Z,-1.30
2023-02-05T00:59:32.114Z,-1.40
2023-02-05T01:02:00.277Z,-1.40
2023-02-05T01:04:30.020Z,-1.40
2023-02-05T01:06:58.098Z,-1.40
2023-02-05T01:09:26.173Z,-1.50
2023-02-05T01:11:54.318Z,-1.50
2023-02-05T01:14:22.381Z,-1.50
2023-02-05T01:16:50.443Z,-1.50
2023-02-05T01:19:18.589Z,-1.50
2023-02-05T01:21:48.140Z,-1.50
2023-02-05T01:24:16.319Z,-1.50
2023-02-05T01:26:44.537Z,-1.40
2023-02-05T01:29:12.572Z,-1.40
2023-02-05T01:31:40.783Z,-1.40
2023-02-05T01:34:08.983Z,-1.40
2023-02-05T01:36:37.201Z,-1.50
2023-02-05T01:39:06.916Z,-1.50
2023-02-05T01:41:35.283Z,-1.50
2023-02-05T01:44:08.960Z,-1.50
2023-02-05T01:46:37.787Z,-1.40
2023-02-05T01:49:08.823Z,-1.40
2023-02-05T01:51:38.678Z,-1.40
2023-02-05T01:54:09.085Z,-1.30
2023-02-05T01:56:39.777Z,-1.30
2023-02-05T01:59:13.193Z,-1.30
2023-02-05T02:01:43.180Z,-1.20
2023-02-05T02:04:12.886Z,-1.20
2023-02-05T02:06:41.042Z,-1.20
2023-02-05T02:09:10.797Z,-1.20
2023-02-05T02:11:41.525Z,-1.10
2023-02-05T02:14:12.449Z,-1.10
2023-02-05T02:16:41.673Z,-1.00
2023-02-05T02:19:18.509Z,-1.00
2023-02-05T02:22:12.027Z,-1.00
2023-02-05T02:25:15.804Z,-1.00
2023-02-05T02:27:51.867Z,-0.90
2023-02-05T02:30:25.470Z,-0.90
2023-02-05T02:33:01.653Z,-0.80
2023-02-05T02:35:36.485Z,-0.80
2023-02-05T02:38:11.304Z,-0.80
2023-02-05T02:40:44.428Z,-0.70
2023-02-05T02:43:18.157Z,-0.70
2023-02-05T02:45:51.378Z,-0.60
2023-02-05T02:48:22.445Z,-0.60
2023-02-05T02:50:53.991Z,-0.50
2023-02-05T02:53:26.280Z,-0.50
2023-02-05T02:55:57.070Z,-0.50
2023-02-05T02:58:30.941Z,-0.40
2023-02-05T03:01:00.966Z,-0.40
2023-02-05T03:03:33.303Z,-0.40
2023-02-05T03:06:05.086Z,-0.30
2023-02-05T03:08:41.546Z,-0.30
2023-02-05T03:11:14.339Z,-0.30
2023-02-05T03:13:45.472Z,-0.30
2023-02-05T03:16:15.580Z,-0.30
2023-02-05T03:18:44.311Z,-0.30
2023-02-05T03:21:17.710Z,-0.30
2023-02-05T03:23:46.153Z,-0.20
2023-02-05T03:26:36.003Z,-0.20
2023-02-05T03:29:07.911Z,-0.20
2023-02-05T03:31:46.564Z,-0.20
2023-02-05T03:34:28.309Z,-0.20
2023-02-05T03:37:04.857Z,-0.20
2023-02-05T03:39:47.054Z,-0.10
2023-02-05T03:42:25.390Z,-0.10
2023-02-05T03:45:11.156Z,-0.10
2023-02-05T03:47:55.064Z,-0.10
2023-02-05T03:50:29.428Z,0.00
2023-02-05T03:53:04.721Z,0.00
2023-02-05T03:55:38.499Z,0.10
2023-02-05T03:58:12.974Z,0.10
2023-02-05T04:00:43.844Z,0.10
2023-02-05T04:03:12.175Z,0.10
2023-02-05T04:05:40.213Z,0.20
2023-02-05T04:08:08.323Z,0.20
2023-02-05T04:10:36.409Z,0.30
2023-02-05T04:13:04.617Z,0.30
2023-02-05T04:15:32.964Z,0.40
2023-02-05T04:18:02.819Z,0.40
2023-02-05T04:20:30.906Z,0.50
2023-02-05T04:22:58.986Z,0.50
2023-02-05T04:25:27.115Z,0.50
2023-02-05T04:27:55.542Z,0.50
2023-02-05T04:30:23.565Z,0.50
2023-02-05T04:32:51.622Z,0.60
2023-02-05T04:35:21.155Z,0.60
2023-02-05T04:37:49.451Z,0.60
2023-02-05T04:40:18.065Z,0.70
2023-02-05T04:42:46.188Z,0.70
2023-02-05T04:45:14.427Z,0.70
2023-02-05T04:47:42.509Z,0.80
2023-02-05T04:50:11.120Z,0.80
2023-02-05T04:52:40.697Z,0.80
2023-02-05T04:55:09.221Z,0.80
2023-02-05T04:57:38.015Z,0.80
2023-02-05T05:00:06.546Z,0.80
2023-02-05T05:02:34.777Z,0.90
2023-02-05T05:05:02.918Z,0.90
2023-02-05T05:07:31.437Z,0.90
2023-02-05T05:10:00.894Z,0.90
2023-02-05T05:12:29.049Z,0.90
2023-02-05T05:14:57.179Z,1.00
2023-02-05T05:17:25.337Z,1.00
2023-02-05T05:19:53.380Z,1.00
2023-02-05T05:22:21.460Z,1.00
2023-02-05T05:24:49.522Z,1.10
2023-02-05T05:27:19.135Z,1.10
2023-02-05T05:29:47.250Z,1.10
2023-02-05T05:32:15.470Z,1.10
2023-02-05T05:34:43.534Z,1.10
2023-02-05T05:37:11.616Z,1.10
2023-02-05T05:39:57.333Z,1.10
2023-02-05T05:42:44.117Z,1.10
2023-02-05T05:45:12.256Z,1.20
2023-02-05T05:47:40.411Z,1.20
2023-02-05T05:50:08.957Z,1.20
2023-02-05T05:52:37.095Z,1.20
2023-02-05T05:55:05.530Z,1.20
2023-02-05T05:57:35.152Z,1.20
2023-02-05T06:00:03.756Z,1.20
2023-02-05T06:02:31.882Z,1.20
2023-02-05T06:05:02.363Z,1.20
2023-02-05T06:07:30.453Z,1.20
2023-02-05T06:09:58.521Z,1.30
2023-02-05T06:12:26.602Z,1.30
2023-02-05T06:14:56.035Z,1.30
2023-02-05T06:17:24.305Z,1.30
2023-02-05T06:19:52.370Z,1.30
2023-02-05T06:22:20.385Z,1.30
2023-02-05T06:24:48.541Z,1.40
2023-02-05T06:27:16.618Z,1.40
2023-02-05T06:29:44.782Z,1.40
2023-02-05T06:32:14.186Z,1.40
2023-02-05T06:34:42.394Z,1.40
2023-02-05T06:37:10.584Z,1.50
2023-02-05T06:39:38.670Z,1.50
2023-02-05T06:42:07.607Z,1.50
2023-02-05T06:44:35.726Z,1.50
2023-02-05T06:47:04.110Z,1.50
2023-02-05T06:49:33.620Z,1.60
2023-02-05T06:52:01.728Z,1.60
2023-02-05T06:54:30.468Z,1.60
2023-02-05T06:56:58.541Z,1.60
2023-02-05T06:59:26.853Z,1.60
2023-02-05T07:01:55.055Z,1.60
2023-02-05T07:04:23.169Z,1.60
2023-02-05T07:06:54.927Z,1.60
2023-02-05T07:09:23.134Z,1.60
2023-02-05T07:11:51.220Z,1.70
2023-02-05T07:14:19.332Z,1.70
2023-02-05T07:16:47.412Z,1.70
2023-02-05T07:19:15.476Z,1.80
2023-02-05T07:21:44.587Z,1.80
2023-02-05T07:24:14.028Z,1.90
2023-02-05T07:26:42.956Z,1.90
2023-02-05T07:29:11.086Z,1.90
2023-02-05T07:31:39.477Z,2.00
2023-02-05T07:34:07.594Z,2.00
2023-02-05T07:36:35.765Z,2.00
2023-02-05T07:39:04.001Z,2.00
2023-02-05T07:41:33.622Z,2.00
2023-02-05T07:44:01.682Z,2.00
2023-02-05T07:46:30.005Z,2.00
2023-02-05T07:48:58.150Z,2.00
2023-02-05T07:51:26.864Z,2.00
2023-02-05T07:53:55.176Z,2.00
2023-02-05T07:56:25.672Z,2.00
2023-02-05T07:58:55.185Z,2.00
2023-02-05T08:01:23.304Z,2.00
2023-02-05T08:03:51.424Z,2.00
2023-02-05T08:06:19.617Z,2.10
2023-02-05T08:08:47.744Z,2.10
2023-02-05T08:11:17.565Z,2.10
2023-02-05T08:13:46.587Z,2.10
2023-02-05T08:16:16.689Z,2.20
2023-02-05T08:18:48.530Z,2.20
2023-02-05T08:21:16.777Z,2.20
2023-02-05T08:23:45.058Z,2.20
2023-02-05T08:26:14.986Z,2.20
2023-02-05T08:28:43.818Z,2.30
2023-02-05T08:31:13.202Z,2.30
2023-02-05T08:33:42.953Z,2.30
2023-02-05T08:36:11.686Z,2.30
2023-02-05T08:38:39.929Z,2.40
2023-02-05T08:41:12.640Z,2.40
2023-02-05T08:43:42.717Z,2.40
2023-02-05T08:46:11.645Z,2.40
2023-02-05T08:48:39.750Z,2.50
2023-02-05T08:51:10.534Z,2.50
2023-02-05T08:53:38.759Z,2.50
2023-02-05T08:56:09.109Z,2.60
2023-02-05T08:58:37.470Z,2.60
2023-02-05T09:01:07.538Z,2.60
2023-02-05T09:03:36.062Z,2.70
2023-02-05T09:06:06.997Z,2.70
2023-02-05T09:08:37.012Z,2.70
2023-02-05T09:11:06.272Z,2.70
2023-02-05T09:13:34.812Z,2.80
2023-02-05T09:16:03.366Z,2.80
2023-02-05T09:18:31.679Z,2.80
2023-02-05T09:20:59.730Z,2.90
2023-02-05T09:23:27.822Z,2.90
2023-02-05T09:25:59.821Z,3.00
2023-02-05T09:28:27.941Z,3.00
2023-02-05T09:30:56.075Z,3.10
2023-02-05T09:33:24.200Z,3.10
2023-02-05T09:35:52.188Z,3.10
2023-02-05T09:38:20.221Z,3.10
2023-02-05T09:40:59.388Z,3.20
2023-02-05T09:43:39.755Z,3.30
2023-02-05T09:46:15.522Z,3.30
2023-02-05T09:48:55.678Z,3.40
2023-02-05T09:51:31.441Z,3.40
2023-02-05T09:54:04.638Z,3.50
2023-02-05T09:56:36.717Z,3.60
2023-02-05T09:59:06.543Z,3.70
2023-02-05T10:01:42.751Z,3.80
2023-02-05T10:04:11.477Z,3.80
2023-02-05T10:06:53.406Z,3.90
2023-02-05T10:09:44.758Z,4.00
2023-02-05T10:12:23.844Z,4.00
2023-02-05T10:15:04.841Z,4.10
2023-02-05T10:17:46.086Z,4.20
2023-02-05T10:20:31.181Z,4.20
2023-02-05T10:23:14.758Z,4.30
2023-02-05T10:26:10.560Z,4.40
2023-02-05T10:29:06.304Z,4.50
2023-02-05T10:31:44.679Z,4.60
2023-02-05T10:34:25.927Z,4.70
2023-02-05T10:36:55.125Z,4.70
2023-02-05T10:39:26.760Z,4.80
2023-02-05T10:42:00.332Z,4.80
2023-02-05T10:44:33.637Z,4.90
2023-02-05T10:47:06.993Z,4.90
2023-02-05T10:49:45.699Z,5.00
2023-02-05T10:52:16.073Z,5.10
2023-02-05T10:54:44.902Z,5.20
2023-02-05T10:57:15.525Z,5.30
2023-02-05T10:59:54.201Z,5.40
2023-02-05T11:02:23.404Z,5.40
2023-02-05T11:04:57.267Z,5.60
2023-02-05T11:07:30.077Z,5.60
2023-02-05T11:10:13.571Z,5.60
2023-02-05T11:12:45.400Z,5.70
2023-02-05T11:15:24.733Z,5.90
2023-02-05T11:17:54.645Z,6.10
2023-02-05T11:20:32.847Z,6.20
2023-02-05T11:23:09.850Z,6.40
2023-02-05T11:25:37.965Z,6.50
2023-02-05T11:28:06.528Z,6.50
2023-02-05T11:30:50.364Z,6.50
2023-02-05T11:33:26.293Z,6.40
2023-02-05T11:35:57.015Z,6.40
2023-02-05T11:38:34.006Z,6.30
2023-02-05T11:41:05.504Z,6.30
2023-02-05T11:43:36.454Z,6.30
2023-02-05T11:46:09.363Z,6.30
2023-02-05T11:48:41.854Z,6.30
2023-02-05T11:51:12.557Z,6.30
2023-02-05T11:53:51.283Z,6.30
2023-02-05T11:56:25.263Z,6.30
2023-02-05T11:59:01.509Z,6.30
2023-02-05T12:01:34.641Z,6.30
2023-02-05T12:04:05.641Z,6.30
2023-02-05T12:06:43.441Z,6.30
2023-02-05T12:09:15.592Z,6.20
2023-02-05T12:12:06.533Z,6.20
2023-02-05T12:14:42.906Z,6.10
2023-02-05T12:17:32.945Z,6.10
2023-02-05T12:20:11.026Z,6.00
2023-02-05T12:23:05.905Z,6.00
2023-02-05T12:25:43.467Z,6.00
2023-02-05T12:28:24.938Z,5.90
2023-02-05T12:31:05.361Z,5.90
2023-02-05T12:33:51.891Z,5.90
2023-02-05T12:36:34.170Z,5.90
2023-02-05T12:39:12.799Z,6.00
2023-02-05T12:41:49.742Z,5.90
2023-02-05T12:44:32.234Z,5.90
2023-02-05T12:47:14.993Z,5.90
2023-02-05T12:50:11.376Z,5.90
2023-02-05T12:52:55.374Z,5.80
2023-02-05T12:55:35.294Z,5.70
2023-02-05T12:58:06.226Z,5.70
2023-02-05T13:00:39.239Z,5.70
2023-02-05T13:03:15.503Z,5.70
2023-02-05T13:05:49.548Z,5.70
2023-02-05T13:08:22.023Z,5.70
2023-02-05T13:10:57.164Z,5.60
2023-02-05T13:13:31.531Z,5.60
2023-02-05T13:16:03.960Z,5.60
2023-02-05T13:18:35.426Z,5.60
2023-02-05T13:21:26.666Z,5.60
2023-02-05T13:24:19.668Z,5.60
2023-02-05T13:27:05.708Z,5.50
2023-02-05T13:29:46.375Z,5.50
2023-02-05T13:32:17.520Z,5.50
2023-02-05T13:34:46.449Z,5.50
2023-02-05T13:37:47.838Z,5.40
2023-02-05T13:40:45.239Z,5.50
2023-02-05T13:43:42.089Z,5.40
2023-02-05T13:46:38.136Z,5.40
2023-02-05T13:49:31.641Z,5.40
2023-02-05T13:52:26.553Z,5.40
2023-02-05T13:55:24.281Z,5.40
2023-02-05T13:58:22.266Z,5.40
2023-02-05T14:00:59.632Z,5.40
2023-02-05T14:03:35.346Z,5.40
2023-02-05T14:06:21.693Z,5.40
2023-02-05T14:08:51.770Z,5.40
2023-02-05T14:11:20.415Z,5.40
2023-02-05T14:14:27.777Z,5.40
2023-02-05T14:16:57.150Z,5.40
2023-02-05T14:19:28.295Z,5.40
2023-02-05T14:22:07.431Z,5.40
2023-02-05T14:24:49.752Z,5.40
2023-02-05T14:27:47.992Z,5.40
2023-02-05T14:30:50.387Z,5.40
2023-02-05T14:33:47.802Z,5.40
2023-02-05T14:36:36.915Z,5.40
2023-02-05T14:39:18.792Z,5.40
2023-02-05T14:41:51.626Z,5.40
2023-02-05T14:44:23.356Z,5.40
2023-02-05T14:47:05.310Z,5.40
2023-02-05T14:49:41.167Z,5.40
2023-02-05T14:52:23.132Z,5.40
2023-02-05T14:54:59.496Z,5.30
2023-02-05T14:57:34.561Z,5.20
2023-02-05T15:00:06.085Z,5.20
2023-02-05T15:03:02.250Z,5.10
2023-02-05T15:05:35.994Z,5.10
2023-02-05T15:08:12.612Z,5.10
2023-02-05T15:10:48.762Z,5.00
2023-02-05T15:13:19.006Z,5.00
2023-02-05T15:16:19.928Z,5.00
2023-02-05T15:18:52.221Z,5.00
2023-02-05T15:21:26.286Z,5.00
2023-02-05T15:24:00.574Z,5.00
2023-02-05T15:26:38.543Z,5.00
2023-02-05T15:29:13.420Z,5.00
2023-02-05T15:31:47.140Z,4.90
2023-02-05T15:34:30.705Z,4.90
2023-02-05T15:37:06.364Z,4.90
2023-02-05T15:39:42.677Z,4.90
2023-02-05T15:42:16.955Z,4.90
2023-02-05T15:44:44.984Z,4.90
2023-02-05T15:47:18.763Z,4.90
2023-02-05T15:49:51.787Z,4.90
2023-02-05T15:52:23.679Z,4.90
2023-02-05T15:54:57.128Z,4.80
2023-02-05T15:57:28.559Z,4.80
2023-02-05T15:59:58.748Z,4.80
2023-02-05T16:02:29.205Z,4.80
2023-02-05T16:05:01.409Z,4.80
2023-02-05T16:07:31.848Z,4.80
2023-02-05T16:10:01.947Z,4.80
2023-02-05T16:12:31.448Z,4.80
2023-02-05T16:15:05.077Z,4.80
2023-02-05T16:17:38.950Z,4.70
2023-02-05T16:20:18.637Z,4.70
2023-02-05T16:22:52.648Z,4.70
2023-02-05T16:25:32.862Z,4.70
2023-02-05T16:28:04.030Z,4.70
2023-02-05T16:30:35.129Z,4.60
2023-02-05T16:33:05.673Z,4.70
2023-02-05T16:35:38.567Z,4.60
2023-02-05T16:38:09.733Z,4.60
2023-02-05T16:40:43.133Z,4.60
2023-02-05T16:43:31.709Z,4.60
2023-02-05T16:46:24.980Z,4.60
2023-02-05T16:48:55.562Z,4.60
2023-02-05T16:51:37.665Z,4.60
2023-02-05T16:54:41.705Z,4.60
2023-02-05T16:57:14.901Z,4.60
2023-02-05T16:59:51.913Z,4.50
2023-02-05T17:02:29.467Z,4.50
2023-02-05T17:05:00.016Z,4.50
2023-02-05T17:07:31.171Z,4.50
2023-02-05T17:10:16.333Z,4.50
2023-02-05T17:12:51.406Z,4.40
2023-02-05T17:15:40.116Z,4.40
2023-02-05T17:18:23.531Z,4.40
2023-02-05T17:20:51.740Z,4.40
2023-02-05T17:23:21.585Z,4.40
2023-02-05T17:25:55.180Z,4.40
2023-02-05T17:28:26.531Z,4.40
2023-02-05T17:30:57.943Z,4.40
2023-02-05T17:33:27.975Z,4.40
2023-02-05T17:35:56.424Z,4.30
2023-02-05T17:38:26.839Z,4.30
2023-02-05T17:41:14.963Z,4.30
2023-02-05T17:43:43.289Z,4.30
2023-02-05T17:46:14.232Z,4.20
2023-02-05T17:48:44.593Z,4.20
2023-02-05T17:51:19.820Z,4.20
2023-02-05T17:53:49.706Z,4.20
2023-02-05T17:56:19.479Z,4.20
2023-02-05T17:58:48.146Z,4.20
2023-02-05T18:01:16.454Z,4.20
2023-02-05T18:03:45.055Z,4.20
2023-02-05T18:06:15.295Z,4.10
2023-02-05T18:08:46.441Z,4.10
2023-02-05T18:11:16.396Z,4.10
2023-02-05T18:13:44.889Z,4.10
2023-02-05T18:16:13.171Z,4.10
2023-02-05T18:18:41.469Z,4.10
2023-02-05T18:21:10.925Z,4.10
2023-02-05T18:23:39.261Z,4.10
2023-02-05T18:26:08.334Z,4.10
2023-02-05T18:28:37.980Z,4.10
2023-02-05T18:31:09.614Z,4.10
2023-02-05T18:33:38.205Z,4.10
2023-02-05T18:36:08.830Z,4.10
2023-02-05T18:38:37.728Z,4.10
2023-02-05T18:41:07.137Z,4.10
2023-02-05T18:43:37.482Z,4.10
2023-02-05T18:46:07.357Z,4.10
2023-02-05T18:48:37.863Z,4.20
2023-02-05T18:51:08.275Z,4.20
2023-02-05T18:53:38.068Z,4.20
2023-02-05T18:56:08.079Z,4.20
2023-02-05T18:58:37.922Z,4.20
2023-02-05T19:01:11.804Z,4.20
2023-02-05T19:03:41.276Z,4.20
2023-02-05T19:06:10.342Z,4.20
2023-02-05T19:08:38.865Z,4.20
2023-02-05T19:11:08.334Z,4.20
2023-02-05T19:13:38.049Z,4.20
2023-02-05T19:16:08.574Z,4.20
2023-02-05T19:18:37.015Z,4.20
2023-02-05T19:21:06.792Z,4.20
2023-02-05T19:23:36.283Z,4.20
2023-02-05T19:26:07.137Z,4.20
2023-02-05T19:28:37.636Z,4.20
2023-02-05T19:31:06.941Z,4.20
2023-02-05T19:33:36.022Z,4.20
2023-02-05T19:36:06.015Z,4.20
2023-02-05T19:38:36.187Z,4.20
2023-02-05T19:41:07.251Z,4.20
2023-02-05T19:43:37.169Z,4.20
2023-02-05T19:46:07.406Z,4.20
2023-02-05T19:48:36.316Z,4.20
2023-02-05T19:51:05.366Z,4.20
2023-02-05T19:53:34.182Z,4.20
2023-02-05T19:56:07.523Z,4.20
2023-02-05T19:58:38.119Z,4.20
2023-02-05T20:01:13.342Z,4.20
2023-02-05T20:03:41.683Z,4.20
2023-02-05T20:06:11.513Z,4.20
2023-02-05T20:08:40.051Z,4.20
2023-02-05T20:11:08.634Z,4.20
2023-02-05T20:13:39.817Z,4.10
2023-02-05T20:16:10.737Z,4.20
2023-02-05T20:18:39.449Z,4.10
2023-02-05T20:21:08.313Z,4.20
2023-02-05T20:23:37.201Z,4.20
2023-02-05T20:26:07.418Z,4.20
2023-02-05T20:28:59.799Z,4.10
2023-02-05T20:31:35.262Z,4.10
2023-02-05T20:34:04.154Z,4.10
2023-02-05T20:36:33.329Z,4.10
2023-02-05T20:39:03.460Z,4.10
2023-02-05T20:41:32.267Z,4.10
2023-02-05T20:44:01.880Z,4.10
2023-02-05T20:46:31.022Z,4.10
2023-02-05T20:49:00.739Z,4.10
2023-02-05T20:51:29.260Z,4.00
2023-02-05T20:53:58.136Z,4.00
2023-02-05T20:56:27.960Z,3.90
2023-02-05T20:58:58.830Z,3.80
2023-02-05T21:01:30.426Z,3.80
2023-02-05T21:04:00.571Z,3.70
2023-02-05T21:06:30.592Z,3.70
2023-02-05T21:08:59.170Z,3.60
2023-02-05T21:11:29.023Z,3.50
2023-02-05T21:13:58.089Z,3.50
2023-02-05T21:16:30.844Z,3.60
2023-02-05T21:18:58.891Z,3.60
2023-02-05T21:21:29.500Z,3.60
2023-02-05T21:23:59.070Z,3.60
2023-02-05T21:26:29.558Z,3.70
2023-02-05T21:29:00.089Z,3.70
2023-02-05T21:31:34.002Z,3.70
2023-02-05T21:34:02.631Z,3.70
2023-02-05T21:36:31.159Z,3.70
2023-02-05T21:38:59.396Z,3.70
2023-02-05T21:41:28.113Z,3.80
2023-02-05T21:44:01.490Z,3.80
2023-02-05T21:46:32.600Z,3.80
2023-02-05T21:49:02.133Z,3.80
2023-02-05T21:51:33.166Z,3.80
2023-02-05T21:54:03.832Z,3.80
2023-02-05T21:56:34.811Z,3.80
2023-02-05T21:59:03.074Z,3.80
2023-02-05T22:01:34.345Z,3.80
2023-02-05T22:04:04.582Z,3.80
2023-02-05T22:06:34.342Z,3.70
2023-02-05T22:09:03.948Z,3.70
2023-02-05T22:11:32.411Z,3.70
2023-02-05T22:14:00.546Z,3.60
2023-02-05T22:16:31.152Z,3.50
2023-02-05T22:19:01.856Z,3.50
2023-02-05T22:21:32.328Z,3.40
2023-02-05T22:24:02.265Z,3.30
2023-02-05T22:26:32.464Z,3.20
2023-02-05T22:29:01.931Z,3.10
2023-02-05T22:31:31.229Z,3.00
2023-02-05T22:34:00.802Z,3.00
2023-02-05T22:36:31.312Z,2.90
2023-02-05T22:38:59.629Z,2.80
2023-02-05T22:41:29.386Z,2.80
2023-02-05T22:44:00.151Z,2.70
2023-02-05T22:46:29.758Z,2.60
2023-02-05T22:49:01.381Z,2.60
2023-02-05T22:51:32.095Z,2.50
2023-02-05T22:54:01.036Z,2.40
2023-02-05T22:56:29.829Z,2.40
2023-02-05T22:59:00.180Z,2.30
2023-02-05T23:01:31.167Z,2.30
2023-02-05T23:04:02.590Z,2.30
2023-02-05T23:06:33.130Z,2.30
2023-02-05T23:09:03.620Z,2.30
2023-02-05T23:11:32.960Z,2.30
2023-02-05T23:14:02.617Z,2.20
2023-02-05T23:16:33.840Z,2.20
2023-02-05T23:19:06.138Z,2.10
2023-02-05T23:21:36.171Z,2.10
2023-02-05T23:24:05.086Z,2.10
2023-02-05T23:26:37.066Z,2.00
2023-02-05T23:29:05.797Z,2.00
2023-02-05T23:31:34.620Z,2.00
2023-02-05T23:34:04.330Z,1.90
2023-02-05T23:36:32.468Z,1.80
2023-02-05T23:39:00.885Z,1.80
2023-02-05T23:41:39.885Z,1.70
2023-02-05T23:44:12.855Z,1.70
2023-02-05T23:46:42.317Z,1.60
2023-02-05T23:49:12.552Z,1.60
2023-02-05T23:51:41.727Z,1.50
2023-02-05T23:54:12.481Z,1.50
2023-02-05T23:56:40.640Z,1.40
2023-02-05T23:59:10.412Z,1.40
